Time;durP1;ratioP1;P1;durP2;ratioP2;P2;SDS_P1;SDS_P2;PMS_P1;PMS_P2;Temp;Humidity;BMP_temperature;BMP_pressure;BME280_temperature;BME280_humidity;BME280_pressure;Samples;Min_cycle;Max_cycle;Signal;HPM_P1;HPM_P2
2021/06/07 00:01:48;;;;;;;16.77;2.88;;;;;14.10;101206.00;;;;5109300;28;20027;-76
2021/06/07 00:04:15;;;;;;;26.65;4.28;;;;;14.10;101219.00;;;;5109137;28;20413;-75
2021/06/07 00:06:43;;;;;;;25.70;3.97;;;;;14.10;101200.00;;;;5108835;28;20402;-76
2021/06/07 00:09:12;;;;;;;19.92;3.13;;;;;14.20;101216.00;;;;5109272;28;20035;-76
2021/06/07 00:11:42;;;;;;;24.10;4.10;;;;;14.10;101219.00;;;;5109072;28;20887;-77
2021/06/07 00:14:09;;;;;;;21.17;3.95;;;;;14.10;101201.00;;;;5108243;28;20031;-75
2021/06/07 00:16:36;;;;;;;19.33;3.05;;;;;14.10;101225.00;;;;5107586;28;20070;-75
2021/06/07 00:19:08;;;;;;;21.42;2.80;;;;;14.20;101222.00;;;;5108822;28;20027;-75
2021/06/07 00:21:35;;;;;;;26.23;3.70;;;;;14.10;101224.00;;;;5089405;28;20039;-75
2021/06/07 00:24:03;;;;;;;18.58;3.55;;;;;14.10;101221.00;;;;5108470;28;20019;-76
2021/06/07 00:26:30;;;;;;;25.63;3.80;;;;;14.10;101224.00;;;;5126933;28;20031;-78
2021/06/07 00:28:57;;;;;;;20.83;3.35;;;;;14.20;101216.00;;;;5131269;28;20041;-74
2021/06/07 00:31:25;;;;;;;18.85;3.10;;;;;14.20;101224.00;;;;5116463;28;20039;-75
2021/06/07 00:33:52;;;;;;;21.33;3.22;;;;;14.20;101211.00;;;;5108587;28;20027;-75
2021/06/07 00:36:22;;;;;;;25.63;3.53;;;;;14.20;101223.00;;;;5109779;28;20111;-75
2021/06/07 00:38:53;;;;;;;23.15;3.70;;;;;14.20;101233.00;;;;5108889;28;20110;-75
2021/06/07 00:41:22;;;;;;;21.30;3.13;;;;;14.20;101233.00;;;;5108583;28;20559;-76
2021/06/07 00:43:57;;;;;;;23.42;3.83;;;;;14.20;101214.00;;;;5108183;28;20482;-76
2021/06/07 00:46:24;;;;;;;18.27;3.50;;;;;14.20;101216.00;;;;5107845;28;20423;-75
2021/06/07 00:48:52;;;;;;;19.13;3.08;;;;;14.30;101231.00;;;;5090101;28;20114;-76
2021/06/07 00:51:19;;;;;;;20.67;3.35;;;;;14.30;101209.00;;;;5107431;28;20036;-75
2021/06/07 00:53:46;;;;;;;22.05;2.95;;;;;14.30;101219.00;;;;5108517;28;20051;-75
2021/06/07 00:56:13;;;;;;;21.60;3.17;;;;;14.30;101226.00;;;;5105827;28;20024;-75
2021/06/07 00:58:44;;;;;;;18.40;3.35;;;;;14.20;101217.00;;;;5108559;28;20055;-75
2021/06/07 01:01:13;;;;;;;18.08;3.28;;;;;14.20;101242.00;;;;5107936;28;20031;-75
2021/06/07 01:03:42;;;;;;;19.67;3.00;;;;;14.20;101239.00;;;;5107342;28;20115;-75
2021/06/07 01:06:10;;;;;;;22.00;3.05;;;;;14.20;101227.00;;;;5107634;28;20027;-75
2021/06/07 01:08:37;;;;;;;19.55;3.33;;;;;14.20;101226.00;;;;5108556;28;20426;-75
2021/06/07 01:11:03;;;;;;;21.13;3.30;;;;;14.20;101217.00;;;;5107955;28;20019;-76
2021/06/07 01:13:30;;;;;;;17.02;2.83;;;;;14.20;101217.00;;;;5088929;28;20023;-75
2021/06/07 01:15:58;;;;;;;16.00;2.45;;;;;14.20;101217.00;;;;5108202;28;20087;-75
2021/06/07 01:18:28;;;;;;;23.10;4.05;;;;;14.20;101221.00;;;;5108373;28;20028;-75
2021/06/07 01:21:02;;;;;;;21.05;3.65;;;;;14.20;101221.00;;;;5108698;28;20535;-76
2021/06/07 01:23:29;;;;;;;23.08;3.05;;;;;14.20;101214.00;;;;5107404;28;20027;-75
2021/06/07 01:25:57;;;;;;;17.83;3.10;;;;;14.20;101214.00;;;;5107097;28;20080;-75
2021/06/07 01:28:24;;;;;;;18.58;3.75;;;;;14.20;101202.00;;;;5107694;28;20089;-75
2021/06/07 01:30:51;;;;;;;28.88;3.28;;;;;14.30;101190.00;;;;5107621;28;20035;-76
2021/06/07 01:33:23;;;;;;;19.92;3.05;;;;;14.30;101196.00;;;;5107906;28;20478;-76
2021/06/07 01:35:54;;;;;;;24.02;3.20;;;;;14.30;101193.00;;;;5107231;28;20030;-76
2021/06/07 01:38:21;;;;;;;19.67;3.03;;;;;14.30;101204.00;;;;5106972;28;20061;-75
2021/06/07 01:40:51;;;;;;;16.27;2.28;;;;;14.30;101193.00;;;;5107367;28;20425;-78
2021/06/07 01:43:19;;;;;;;19.42;2.65;;;;;14.30;101219.00;;;;5107596;28;20030;-75
2021/06/07 01:45:48;;;;;;;17.52;2.38;;;;;14.30;101197.00;;;;5107358;28;20494;-75
2021/06/07 01:48:16;;;;;;;22.02;3.65;;;;;14.30;101204.00;;;;5107090;28;20730;-76
2021/06/07 01:50:43;;;;;;;20.73;2.72;;;;;14.30;101212.00;;;;5107427;28;20410;-75
2021/06/07 01:53:11;;;;;;;20.08;3.10;;;;;14.30;101196.00;;;;5107672;28;20088;-75
2021/06/07 01:55:43;;;;;;;18.10;2.83;;;;;14.30;101188.00;;;;5107255;28;20039;-77
2021/06/07 01:58:12;;;;;;;21.92;3.17;;;;;14.30;101197.00;;;;5107255;28;20031;-75
2021/06/07 02:00:44;;;;;;;23.55;2.95;;;;;14.30;101179.00;;;;5088708;28;20494;-76
2021/06/07 02:03:13;;;;;;;20.55;3.17;;;;;14.30;101202.00;;;;5107394;28;20385;-76
2021/06/07 02:05:45;;;;;;;23.90;3.22;;;;;14.30;101202.00;;;;5106923;28;20156;-75
2021/06/07 02:08:14;;;;;;;25.63;3.67;;;;;14.30;101200.00;;;;5107412;28;20593;-76
2021/06/07 02:10:46;;;;;;;26.95;3.38;;;;;14.30;101195.00;;;;5107077;28;20630;-75
2021/06/07 02:13:14;;;;;;;18.42;2.28;;;;;14.30;101197.00;;;;5107110;28;20119;-75
2021/06/07 02:15:41;;;;;;;26.35;2.97;;;;;14.30;101202.00;;;;5106332;28;20142;-75
2021/06/07 02:18:10;;;;;;;30.15;3.83;;;;;14.30;101185.00;;;;5106711;28;20067;-77
2021/06/07 02:20:39;;;;;;;20.20;2.95;;;;;14.30;101183.00;;;;5107080;28;20031;-76
2021/06/07 02:23:06;;;;;;;26.38;3.33;;;;;14.30;101171.00;;;;5106959;28;20115;-76
2021/06/07 02:25:32;;;;;;;26.63;2.97;;;;;14.30;101185.00;;;;5107280;28;20032;-75
2021/06/07 02:27:59;;;;;;;24.52;3.08;;;;;14.30;101178.00;;;;5120788;28;20506;-76
2021/06/07 02:30:30;;;;;;;25.48;3.45;;;;;14.30;101179.00;;;;5106635;28;20031;-75
2021/06/07 02:32:57;;;;;;;;;;;;;14.30;101179.00;;;;5109371;27;20032;-75
2021/06/07 02:35:24;;;;;;;17.80;2.67;;;;;14.20;101187.00;;;;5107233;28;19916;-75
2021/06/07 02:37:53;;;;;;;25.77;3.33;;;;;14.30;101177.00;;;;5106722;28;20039;-76
2021/06/07 02:40:24;;;;;;;17.35;2.47;;;;;14.30;101198.00;;;;5107030;28;20030;-75
2021/06/07 02:42:50;;;;;;;20.08;3.88;;;;;14.30;101192.00;;;;5108171;27;20024;-76
2021/06/07 02:45:19;;;;;;;26.58;4.57;;;;;14.20;101177.00;;;;5106708;28;20505;-75
2021/06/07 02:47:47;;;;;;;31.80;4.38;;;;;14.20;101173.00;;;;5109213;28;20028;-76
2021/06/07 02:50:15;;;;;;;27.77;3.53;;;;;14.20;101181.00;;;;5110652;28;20028;-75
2021/06/07 02:52:48;;;;;;;28.33;3.85;;;;;14.10;101178.00;;;;5111025;28;20036;-75
2021/06/07 02:55:29;;;;;;;21.25;3.33;;;;;14.00;101175.00;;;;5110523;28;20035;-76
2021/06/07 02:57:57;;;;;;;23.60;3.30;;;;;14.00;101174.00;;;;5110483;28;20026;-75
2021/06/07 03:00:30;;;;;;;26.90;3.72;;;;;14.00;101188.00;;;;5110583;28;20382;-76
2021/06/07 03:02:57;;;;;;;25.25;3.83;;;;;14.00;101179.00;;;;5111046;28;20058;-76
2021/06/07 03:05:25;;;;;;;37.40;4.38;;;;;14.00;101175.00;;;;5110394;28;20059;-75
2021/06/07 03:07:52;;;;;;;24.73;2.88;;;;;13.90;101179.00;;;;5110053;28;20051;-75
2021/06/07 03:10:19;;;;;;;26.23;3.30;;;;;13.90;101168.00;;;;5110728;28;20080;-76
2021/06/07 03:12:46;;;;;;;20.48;2.65;;;;;13.80;101195.00;;;;5110822;28;20122;-76
2021/06/07 03:15:14;;;;;;;28.45;3.33;;;;;13.80;101181.00;;;;5110677;28;20035;-75
2021/06/07 03:17:42;;;;;;;23.92;3.58;;;;;13.80;101182.00;;;;5110591;28;20398;-76
2021/06/07 03:20:11;;;;;;;24.60;3.33;;;;;13.80;101177.00;;;;5110614;28;20485;-75
2021/06/07 03:22:38;;;;;;;32.17;3.60;;;;;13.80;101175.00;;;;5110257;28;20023;-75
2021/06/07 03:25:07;;;;;;;23.13;2.90;;;;;13.90;101176.00;;;;5110996;28;20117;-74
2021/06/07 03:27:35;;;;;;;20.10;2.20;;;;;13.80;101166.00;;;;5110745;28;20080;-74
2021/06/07 03:30:02;;;;;;;24.45;3.10;;;;;13.80;101153.00;;;;5110183;28;20057;-75
2021/06/07 03:32:28;;;;;;;24.20;3.00;;;;;13.60;101159.00;;;;5110571;28;20444;-74
2021/06/07 03:34:55;;;;;;;25.85;3.05;;;;;13.60;101153.00;;;;5109763;28;20031;-74
2021/06/07 03:37:21;;;;;;;25.63;4.07;;;;;13.50;101151.00;;;;5109621;28;20051;-75
2021/06/07 03:39:48;;;;;;;26.60;3.30;;;;;13.40;101173.00;;;;5110295;28;20053;-75
2021/06/07 03:42:15;;;;;;;34.38;3.42;;;;;13.30;101171.00;;;;5109896;28;20030;-75
2021/06/07 03:44:41;;;;;;;21.30;2.67;;;;;13.30;101173.00;;;;5109415;28;20080;-75
2021/06/07 03:47:08;;;;;;;27.42;2.45;;;;;13.20;101183.00;;;;5110073;28;20035;-74
2021/06/07 03:49:34;;;;;;;25.55;2.72;;;;;13.20;101193.00;;;;5109661;28;20107;-75
2021/06/07 03:52:01;;;;;;;30.27;3.80;;;;;13.10;101204.00;;;;5110082;28;20084;-75
2021/06/07 03:54:28;;;;;;;26.38;2.53;;;;;13.10;101179.00;;;;5109722;28;20044;-74
2021/06/07 03:56:54;;;;;;;22.98;2.47;;;;;13.10;101172.00;;;;5110209;28;20019;-75
2021/06/07 03:59:21;;;;;;;39.92;3.42;;;;;13.10;101197.00;;;;5109399;28;20577;-75
2021/06/07 04:01:47;;;;;;;29.60;3.20;;;;;13.10;101174.00;;;;5091207;28;20023;-75
2021/06/07 04:04:14;;;;;;;21.27;2.45;;;;;13.10;101174.00;;;;5109190;28;20077;-75
2021/06/07 04:06:40;;;;;;;26.08;2.80;;;;;13.10;101159.00;;;;5109994;28;20051;-75
2021/06/07 04:09:07;;;;;;;31.45;3.08;;;;;13.00;101180.00;;;;5110082;28;20539;-75
2021/06/07 04:11:33;;;;;;;27.48;2.58;;;;;13.00;101179.00;;;;5110008;28;20394;-75
2021/06/07 04:14:00;;;;;;;25.52;3.17;;;;;13.00;101187.00;;;;5109347;28;20032;-75
2021/06/07 04:16:26;;;;;;;30.00;2.80;;;;;13.10;101180.00;;;;5109456;28;20411;-75
2021/06/07 04:18:53;;;;;;;28.10;2.47;;;;;13.10;101191.00;;;;5109437;28;20073;-75
2021/06/07 04:21:19;;;;;;;29.10;3.25;;;;;13.10;101178.00;;;;5109274;28;20386;-75
2021/06/07 04:23:46;;;;;;;28.75;2.92;;;;;13.10;101178.00;;;;5109292;28;20031;-74
2021/06/07 04:26:13;;;;;;;26.60;3.70;;;;;13.10;101174.00;;;;5108903;28;20132;-75
2021/06/07 04:28:39;;;;;;;25.90;2.67;;;;;13.10;101196.00;;;;5109005;28;20525;-75
2021/06/07 04:31:06;;;;;;;23.58;3.00;;;;;13.10;101196.00;;;;5108883;28;20826;-75
2021/06/07 04:33:33;;;;;;;21.33;1.90;;;;;13.10;101220.00;;;;5108910;28;20028;-74
2021/06/07 04:35:59;;;;;;;21.27;2.33;;;;;13.20;101212.00;;;;5108725;28;20489;-75
2021/06/07 04:38:26;;;;;;;20.42;2.17;;;;;13.30;101214.00;;;;5108560;28;20072;-75
2021/06/07 04:40:53;;;;;;;20.88;2.42;;;;;13.30;101226.00;;;;5108815;28;20031;-75
2021/06/07 04:43:19;;;;;;;22.50;2.47;;;;;13.30;101202.00;;;;5108770;28;20020;-75
2021/06/07 04:45:47;;;;;;;27.33;2.50;;;;;13.40;101187.00;;;;5108261;28;20031;-75
2021/06/07 04:48:14;;;;;;;22.90;2.60;;;;;13.40;101183.00;;;;5108755;28;20024;-75
2021/06/07 04:50:42;;;;;;;20.33;2.38;;;;;13.40;101202.00;;;;5108868;28;20059;-75
2021/06/07 04:53:11;;;;;;;27.08;2.58;;;;;13.50;101190.00;;;;5108263;28;20478;-75
2021/06/07 04:55:44;;;;;;;22.10;2.92;;;;;13.50;101216.00;;;;5108702;28;20031;-75
2021/06/07 04:58:20;;;;;;;20.92;2.67;;;;;13.60;101186.00;;;;5108541;28;20535;-75
2021/06/07 05:00:52;;;;;;;22.08;2.50;;;;;13.60;101211.00;;;;5108615;28;20154;-75
2021/06/07 05:03:19;;;;;;;24.30;2.40;;;;;13.60;101197.00;;;;5108404;28;20028;-75
2021/06/07 05:05:46;;;;;;;16.33;1.95;;;;;13.60;101207.00;;;;5108025;28;20035;-75
2021/06/07 05:08:14;;;;;;;25.42;2.70;;;;;13.60;101199.00;;;;5108087;28;20061;-75
2021/06/07 05:10:40;;;;;;;17.48;2.45;;;;;13.60;101170.00;;;;5107245;28;20497;-75
2021/06/07 05:13:07;;;;;;;16.00;2.00;;;;;13.60;101186.00;;;;5108304;28;20063;-75
2021/06/07 05:15:34;;;;;;;25.13;2.33;;;;;13.70;101187.00;;;;5107818;28;20048;-75
2021/06/07 05:18:01;;;;;;;27.55;3.35;;;;;13.70;101181.00;;;;5108390;28;20031;-75
2021/06/07 05:20:30;;;;;;;29.40;3.00;;;;;13.70;101174.00;;;;5108088;28;20065;-75
2021/06/07 05:22:58;;;;;;;12.07;2.17;;;;;13.70;101176.00;;;;5107850;28;20130;-75
2021/06/07 05:25:27;;;;;;;16.33;2.40;;;;;13.70;101167.00;;;;5107885;28;20394;-74
2021/06/07 05:27:55;;;;;;;19.40;2.03;;;;;13.70;101161.00;;;;5107447;28;20019;-75
2021/06/07 05:30:24;;;;;;;22.23;2.53;;;;;13.80;101177.00;;;;5107615;28;20598;-75
2021/06/07 05:32:51;;;;;;;17.13;2.70;;;;;13.80;101182.00;;;;5108030;28;20074;-75
2021/06/07 05:35:19;;;;;;;15.68;2.30;;;;;13.90;101184.00;;;;5107982;28;20026;-75
2021/06/07 05:37:46;;;;;;;19.50;2.47;;;;;13.90;101182.00;;;;5107821;28;20495;-75
2021/06/07 05:40:15;;;;;;;24.80;2.70;;;;;13.80;101192.00;;;;5105894;28;20380;-75
2021/06/07 05:42:42;;;;;;;18.40;2.65;;;;;13.80;101173.00;;;;5107640;28;20090;-75
2021/06/07 05:45:10;;;;;;;15.52;2.38;;;;;13.90;101184.00;;;;5107689;28;20035;-75
2021/06/07 05:47:40;;;;;;;27.10;3.08;;;;;13.90;101181.00;;;;5107307;28;20495;-75
2021/06/07 05:50:10;;;;;;;22.60;2.38;;;;;13.90;101188.00;;;;5107515;28;20055;-75
2021/06/07 05:52:45;;;;;;;14.75;2.47;;;;;13.90;101160.00;;;;5107040;28;20045;-75
2021/06/07 05:55:17;;;;;;;22.40;2.97;;;;;13.90;101165.00;;;;5107309;28;20038;-75
2021/06/07 05:57:44;;;;;;;18.00;2.45;;;;;13.90;101153.00;;;;5107576;28;20536;-75
2021/06/07 06:00:12;;;;;;;20.90;2.70;;;;;13.90;101161.00;;;;5107341;28;20486;-75
2021/06/07 06:02:38;;;;;;;18.30;2.72;;;;;14.00;101171.00;;;;5107009;27;20051;-75
2021/06/07 06:05:06;;;;;;;15.68;2.08;;;;;14.00;101162.00;;;;5108067;27;20141;-75
2021/06/07 06:07:32;;;;;;;15.15;1.98;;;;;14.00;101160.00;;;;5128010;27;20038;-75
2021/06/07 06:09:59;;;;;;;19.75;2.60;;;;;14.00;101164.00;;;;5127472;27;20035;-75
2021/06/07 06:12:26;;;;;;;22.90;2.78;;;;;14.00;101164.00;;;;5127840;27;21155;-75
2021/06/07 06:14:53;;;;;;;17.85;2.60;;;;;14.00;101164.00;;;;5127455;27;20134;-75
2021/06/07 06:17:19;;;;;;;21.98;3.20;;;;;14.10;101163.00;;;;5127396;28;20043;-75
2021/06/07 06:19:46;;;;;;;23.33;3.13;;;;;14.10;101146.00;;;;5127544;28;20122;-75
2021/06/07 06:22:14;;;;;;;19.70;2.42;;;;;14.10;101139.00;;;;5131183;27;20065;-75
2021/06/07 06:24:41;;;;;;;13.25;2.17;;;;;14.20;101132.00;;;;5131617;27;20031;-76
2021/06/07 06:27:08;;;;;;;12.43;2.08;;;;;14.40;101125.00;;;;5132200;27;20110;-75
2021/06/07 06:29:36;;;;;;;16.38;2.80;;;;;14.50;101129.00;;;;5132239;27;20465;-75
2021/06/07 06:32:05;;;;;;;20.10;3.30;;;;;14.50;101122.00;;;;5131566;27;20080;-76
2021/06/07 06:34:32;;;;;;;16.83;2.80;;;;;14.50;101117.00;;;;5131862;27;20147;-75
2021/06/07 06:36:58;;;;;;;24.00;3.47;;;;;14.50;101099.00;;;;5131756;27;20095;-76
2021/06/07 06:39:25;;;;;;;18.27;2.90;;;;;14.50;101110.00;;;;5131805;27;20031;-75
2021/06/07 06:41:51;;;;;;;17.85;3.00;;;;;14.50;101106.00;;;;5131109;27;20427;-76
2021/06/07 06:44:18;;;;;;;17.42;2.70;;;;;14.50;101085.00;;;;5131547;27;20042;-76
2021/06/07 06:46:44;;;;;;;26.73;3.15;;;;;14.60;101088.00;;;;5131257;27;20031;-76
2021/06/07 06:49:11;;;;;;;14.43;2.05;;;;;14.60;101110.00;;;;5131695;27;20397;-76
2021/06/07 06:51:37;;;;;;;21.85;3.40;;;;;14.60;101115.00;;;;5131779;27;20027;-76
2021/06/07 06:54:04;;;;;;;23.42;3.00;;;;;14.70;101119.00;;;;5131135;27;20027;-75
2021/06/07 06:56:31;;;;;;;21.95;2.72;;;;;14.70;101100.00;;;;5131383;27;20030;-76
2021/06/07 06:58:59;;;;;;;25.75;3.33;;;;;14.70;101101.00;;;;5131067;27;20027;-76
2021/06/07 07:01:27;;;;;;;22.52;2.53;;;;;14.70;101100.00;;;;5130970;27;20114;-76
2021/06/07 07:03:54;;;;;;;11.45;1.95;;;;;14.70;101088.00;;;;5130847;27;20045;-75
2021/06/07 07:06:24;;;;;;;18.60;3.13;;;;;14.80;101096.00;;;;5130701;27;20080;-75
2021/06/07 07:08:51;;;;;;;17.98;2.65;;;;;14.70;101089.00;;;;5131375;27;20038;-75
2021/06/07 07:11:18;;;;;;;19.05;2.28;;;;;14.70;101093.00;;;;5131140;27;20050;-75
2021/06/07 07:13:45;;;;;;;13.88;2.65;;;;;14.70;101070.00;;;;5130765;27;20490;-77
2021/06/07 07:16:13;;;;;;;17.35;2.80;;;;;14.80;101067.00;;;;5131291;27;20093;-76
2021/06/07 07:18:39;;;;;;;12.32;2.50;;;;;14.80;101086.00;;;;5131480;27;20451;-76
2021/06/07 07:21:06;;;;;;;20.85;2.97;;;;;14.80;101086.00;;;;5131267;27;20063;-76
2021/06/07 07:23:33;;;;;;;14.00;2.38;;;;;14.80;101078.00;;;;5131046;27;20035;-75
2021/06/07 07:26:01;;;;;;;12.13;2.13;;;;;14.90;101077.00;;;;5130810;27;20485;-76
2021/06/07 07:28:28;;;;;;;14.90;2.85;;;;;14.90;101088.00;;;;5130112;27;20584;-75
2021/06/07 07:30:55;;;;;;;26.60;3.17;;;;;14.90;101088.00;;;;5130627;27;20432;-75
2021/06/07 07:33:22;;;;;;;13.32;2.38;;;;;14.90;101067.00;;;;5130183;27;20058;-75
2021/06/07 07:35:49;;;;;;;23.00;2.85;;;;;15.00;101084.00;;;;5130535;27;20042;-74
2021/06/07 07:38:15;;;;;;;19.90;2.63;;;;;15.00;101092.00;;;;5130548;27;20517;-75
2021/06/07 07:40:44;;;;;;;14.50;2.80;;;;;14.80;101085.00;;;;5130631;27;20027;-75
2021/06/07 07:43:11;;;;;;;14.52;3.25;;;;;14.60;101085.00;;;;5130099;27;20031;-75
2021/06/07 07:45:38;;;;;;;14.55;2.50;;;;;14.50;101091.00;;;;5130404;27;20031;-75
2021/06/07 07:48:07;;;;;;;12.10;2.50;;;;;14.40;101081.00;;;;5130902;27;20027;-75
2021/06/07 07:50:35;;;;;;;13.82;2.67;;;;;14.20;101076.00;;;;5130017;27;20390;-75
2021/06/07 07:53:02;;;;;;;18.02;2.92;;;;;14.10;101084.00;;;;5130333;27;20118;-75
2021/06/07 07:55:32;;;;;;;17.83;2.92;;;;;14.00;101092.00;;;;5130336;27;20027;-75
2021/06/07 07:58:00;;;;;;;14.80;2.45;;;;;14.10;101070.00;;;;5130778;27;20027;-75
2021/06/07 08:00:29;;;;;;;20.02;3.15;;;;;14.30;101081.00;;;;5130355;27;20028;-75
2021/06/07 08:02:58;;;;;;;13.05;2.17;;;;;14.30;101094.00;;;;5130503;27;20108;-76
2021/06/07 08:05:26;;;;;;;16.65;2.80;;;;;14.30;101068.00;;;;5129538;27;20121;-75
2021/06/07 08:07:53;;;;;;;20.08;3.40;;;;;14.40;101084.00;;;;5129935;27;20572;-75
2021/06/07 08:10:19;;;;;;;22.25;2.78;;;;;14.40;101070.00;;;;5129993;27;20508;-75
2021/06/07 08:12:46;;;;;;;19.02;2.40;;;;;14.50;101085.00;;;;5129801;27;20023;-75
2021/06/07 08:15:14;;;;;;;17.23;2.55;;;;;14.50;101067.00;;;;5129712;27;20042;-75
2021/06/07 08:17:40;;;;;;;15.05;2.22;;;;;14.70;101066.00;;;;5129287;27;20031;-75
2021/06/07 08:20:14;;;;;;;18.75;2.53;;;;;14.90;101069.00;;;;5129523;27;20023;-75
2021/06/07 08:22:42;;;;;;;15.23;2.25;;;;;14.80;101071.00;;;;5130213;27;20026;-75
2021/06/07 08:25:09;;;;;;;16.85;2.80;;;;;14.90;101071.00;;;;5129718;27;20039;-74
2021/06/07 08:27:36;;;;;;;19.50;2.45;;;;;15.00;101074.00;;;;5129174;27;20031;-75
2021/06/07 08:30:08;;;;;;;17.20;2.20;;;;;15.00;101062.00;;;;5129664;27;20038;-75
2021/06/07 08:32:35;;;;;;;10.18;1.38;;;;;14.90;101083.00;;;;5129179;27;20054;-77
2021/06/07 08:35:03;;;;;;;13.57;1.90;;;;;15.00;101091.00;;;;5128795;27;20527;-75
2021/06/07 08:37:29;;;;;;;12.55;2.47;;;;;14.90;101080.00;;;;5129429;27;20058;-74
2021/06/07 08:39:56;;;;;;;12.80;2.25;;;;;14.90;101085.00;;;;5129983;27;20435;-76
2021/06/07 08:42:23;;;;;;;15.15;2.15;;;;;14.90;101087.00;;;;5129152;27;20024;-76
2021/06/07 08:44:49;;;;;;;14.38;2.13;;;;;14.80;101082.00;;;;5127712;27;20382;-75
2021/06/07 08:47:16;;;;;;;13.73;2.08;;;;;14.80;101078.00;;;;5129386;27;20438;-75
2021/06/07 08:49:43;;;;;;;15.95;2.08;;;;;14.80;101080.00;;;;5129196;27;20157;-75
2021/06/07 08:52:10;;;;;;;13.50;1.98;;;;;14.70;101082.00;;;;5129134;27;20106;-75
2021/06/07 08:54:37;;;;;;;15.00;1.75;;;;;14.70;101074.00;;;;5128377;27;20091;-76
2021/06/07 08:57:04;;;;;;;13.60;1.98;;;;;14.70;101090.00;;;;5128806;27;20363;-75
2021/06/07 08:59:31;;;;;;;12.63;1.85;;;;;14.70;101085.00;;;;5128986;27;20048;-75
2021/06/07 09:02:02;;;;;;;13.30;2.20;;;;;14.70;101093.00;;;;5129050;27;20508;-75
2021/06/07 09:04:28;;;;;;;20.20;3.10;;;;;14.70;101102.00;;;;5128446;27;20034;-75
2021/06/07 09:06:55;;;;;;;15.50;2.85;;;;;14.70;101112.00;;;;5129003;27;20272;-75
2021/06/07 09:09:24;;;;;;;16.85;2.25;;;;;14.60;101103.00;;;;5128843;27;20030;-74
2021/06/07 09:12:01;;;;;;;20.60;3.03;;;;;14.60;101092.00;;;;5129344;27;20079;-75
2021/06/07 09:14:30;;;;;;;11.00;1.70;;;;;14.50;101093.00;;;;5128200;27;20114;-75
2021/06/07 09:16:57;;;;;;;14.25;2.10;;;;;14.40;101095.00;;;;5127674;27;20170;-75
2021/06/07 09:19:28;;;;;;;14.32;2.08;;;;;14.30;101110.00;;;;5128766;27;20428;-75
2021/06/07 09:22:16;;;;;;;9.77;1.70;;;;;14.40;101096.00;;;;5128360;27;20042;-75
2021/06/07 09:25:04;;;;;;;10.40;2.15;;;;;14.40;101122.00;;;;5128035;27;20031;-75
2021/06/07 09:27:31;;;;;;;15.68;1.85;;;;;14.30;101116.00;;;;5128427;27;20375;-75
2021/06/07 09:29:57;;;;;;;10.80;1.60;;;;;14.30;101123.00;;;;5128159;27;20109;-75
2021/06/07 09:32:24;;;;;;;16.73;2.17;;;;;14.30;101129.00;;;;5128857;27;20106;-76
2021/06/07 09:35:10;;;;;;;12.18;1.58;;;;;14.50;101122.00;;;;5128296;27;20043;-74
2021/06/07 09:37:37;;;;;;;15.60;1.75;;;;;14.50;101122.00;;;;5128151;27;20058;-76
2021/06/07 09:40:22;;;;;;;13.18;1.65;;;;;14.50;101121.00;;;;5127872;27;20030;-76
2021/06/07 09:43:00;;;;;;;7.35;1.40;;;;;14.40;101118.00;;;;5128332;27;20027;-78
2021/06/07 09:45:55;;;;;;;15.70;2.20;;;;;14.30;101114.00;;;;5128043;27;20027;-78
2021/06/07 09:48:28;;;;;;;7.07;1.10;;;;;14.30;101122.00;;;;5127056;27;20047;-75
2021/06/07 09:51:01;;;;;;;14.27;2.03;;;;;14.20;101104.00;;;;5127874;27;20027;-75
2021/06/07 09:53:51;;;;;;;9.43;2.20;;;;;14.20;101106.00;;;;5127788;27;20401;-75
2021/06/07 09:56:19;;;;;;;19.25;1.95;;;;;14.20;101121.00;;;;5127246;27;20058;-75
2021/06/07 09:58:47;;;;;;;17.45;2.65;;;;;14.10;101117.00;;;;5128011;27;20069;-75
2021/06/07 10:01:23;;;;;;;15.73;2.13;;;;;14.10;101131.00;;;;5127715;27;20126;-76
2021/06/07 10:03:55;;;;;;;16.73;1.90;;;;;14.20;101142.00;;;;5127984;27;20023;-76
2021/06/07 10:06:36;;;;;;;13.57;1.65;;;;;14.20;101132.00;;;;5127472;27;20031;-75
2021/06/07 10:09:11;;;;;;;15.68;2.13;;;;;14.20;101142.00;;;;5127639;27;20031;-75
2021/06/07 10:11:40;;;;;;;13.30;1.73;;;;;14.10;101139.00;;;;5127949;28;20030;-75
2021/06/07 10:14:19;;;;;;;14.52;1.60;;;;;14.20;101148.00;;;;5127603;28;20512;-76
2021/06/07 10:16:57;;;;;;;10.07;1.60;;;;;14.10;101150.00;;;;5127994;28;20546;-76
2021/06/07 10:19:41;;;;;;;23.48;2.13;;;;;14.20;101142.00;;;;5127911;27;20027;-77
2021/06/07 10:22:08;;;;;;;7.60;1.38;;;;;14.30;101156.00;;;;5127939;27;20072;-76
2021/06/07 10:24:35;;;;;;;12.98;2.20;;;;;14.30;101161.00;;;;5127559;28;20486;-76
2021/06/07 10:27:02;;;;;;;16.92;2.78;;;;;14.30;101144.00;;;;5127575;28;20034;-76
2021/06/07 10:29:34;;;;;;;19.70;3.30;;;;;14.20;101166.00;;;;5127382;28;20075;-77
2021/06/07 10:32:11;;;;;;;20.80;2.88;;;;;14.30;101175.00;;;;5127364;28;20370;-76
2021/06/07 10:34:51;;;;;;;15.57;1.88;;;;;14.30;101159.00;;;;5126612;28;20553;-76
2021/06/07 10:37:17;;;;;;;12.98;1.67;;;;;14.40;101167.00;;;;5126873;27;20059;-76
2021/06/07 10:39:45;;;;;;;22.38;1.98;;;;;14.40;101173.00;;;;5127914;27;20423;-76
2021/06/07 10:42:17;;;;;;;16.80;2.38;;;;;14.30;101172.00;;;;5128597;28;20031;-77
2021/06/07 10:45:00;;;;;;;16.42;2.47;;;;;14.30;101189.00;;;;5127464;28;20028;-76
2021/06/07 10:47:45;;;;;;;19.80;1.70;;;;;14.40;101182.00;;;;5127224;28;20405;-77
2021/06/07 10:50:15;;;;;;;11.27;1.83;;;;;14.50;101185.00;;;;5127421;27;20443;-77
2021/06/07 10:52:54;;;;;;;20.55;2.78;;;;;14.50;101195.00;;;;5127208;27;20088;-77
2021/06/07 10:55:37;;;;;;;11.13;1.52;;;;;14.60;101190.00;;;;5127442;28;20035;-76
2021/06/07 10:58:12;;;;;;;11.05;1.55;;;;;14.60;101199.00;;;;5127490;28;20401;-77
2021/06/07 11:00:47;;;;;;;11.50;1.70;;;;;14.60;101194.00;;;;5127624;28;20424;-77
2021/06/07 11:03:19;;;;;;;8.75;1.75;;;;;14.80;101176.00;;;;5127220;28;20034;-77
2021/06/07 11:05:47;;;;;;;11.48;1.70;;;;;14.80;101199.00;;;;5127607;28;20035;-77
2021/06/07 11:08:28;;;;;;;13.45;1.90;;;;;14.90;101189.00;;;;5128328;27;20027;-77
2021/06/07 11:11:01;;;;;;;12.50;2.40;;;;;15.10;101196.00;;;;5130934;27;20027;-76
2021/06/07 11:13:32;;;;;;;6.72;1.48;;;;;15.10;101174.00;;;;5130654;27;20031;-78
2021/06/07 11:16:01;;;;;;;12.55;2.08;;;;;15.20;101175.00;;;;5130924;27;20079;-76
2021/06/07 11:18:32;;;;;;;9.30;1.73;;;;;15.50;101176.00;;;;5130996;27;20039;-76
2021/06/07 11:21:07;;;;;;;14.23;2.20;;;;;15.90;101172.00;;;;5131008;27;20073;-76
2021/06/07 11:23:39;;;;;;;12.93;1.80;;;;;16.00;101169.00;;;;5131122;27;20035;-76
2021/06/07 11:26:08;;;;;;;15.50;1.70;;;;;16.30;101148.00;;;;5130472;27;20435;-76
2021/06/07 11:28:42;;;;;;;13.35;2.08;;;;;16.40;101160.00;;;;5131658;27;20549;-75
2021/06/07 11:31:18;;;;;;;11.85;2.60;;;;;17.70;101112.00;;;;5130736;27;20507;-75
2021/06/07 11:33:58;;;;;;;10.95;2.03;;;;;18.20;101130.00;;;;5130613;27;20023;-75
2021/06/07 11:36:39;;;;;;;14.82;2.00;;;;;18.20;101121.00;;;;5111495;27;20031;-75
2021/06/07 11:39:10;;;;;;;9.73;1.83;;;;;17.60;101164.00;;;;5130203;27;20558;-74
2021/06/07 11:41:48;;;;;;;7.35;2.15;;;;;17.40;101192.00;;;;5130737;27;20047;-76
2021/06/07 11:44:17;;;;;;;15.30;2.65;;;;;17.80;101137.00;;;;5130611;27;20112;-76
2021/06/07 11:46:44;;;;;;;10.38;2.10;;;;;18.80;101128.00;;;;5130271;27;20067;-78
2021/06/07 11:49:18;;;;;;;11.02;1.70;;;;;18.70;101155.00;;;;5131026;27;20038;-75
2021/06/07 11:52:06;;;;;;;11.60;2.35;;;;;18.50;101166.00;;;;5130539;27;20510;-76
2021/06/07 11:54:36;;;;;;;14.30;1.80;;;;;18.40;101167.00;;;;5133516;27;20085;-75
2021/06/07 11:57:06;;;;;;;15.88;2.15;;;;;18.70;101158.00;;;;5131485;27;20027;-77
2021/06/07 11:59:39;;;;;;;12.55;2.05;;;;;19.20;101143.00;;;;5130113;27;20497;-76
2021/06/07 12:02:11;;;;;;;9.63;1.98;;;;;19.10;101170.00;;;;5129640;27;20485;-77
2021/06/07 12:04:38;;;;;;;10.82;1.98;;;;;19.20;101161.00;;;;5129613;27;20027;-76
2021/06/07 12:07:07;;;;;;;10.23;2.40;;;;;19.20;101185.00;;;;5129591;27;20027;-77
2021/06/07 12:09:36;;;;;;;15.18;2.47;;;;;17.80;101204.00;;;;5129632;27;20027;-76